Time;durP1;ratioP1;P1;durP2;ratioP2;P2;SDS_P1;SDS_P2;PMS_P1;PMS_P2;Temp;Humidity;BMP_temperature;BMP_pressure;BME280_temperature;BME280_humidity;BME280_pressure;Samples;Min_cycle;Max_cycle;Signal;HPM_P1;HPM_P2
2022/11/21 00:01:22;;;;;;;9.43;2.55;;;;;;;;;;4975901;28;20022;-57
2022/11/21 00:03:49;;;;;;;11.88;2.70;;;;;;;;;;4972223;28;20027;-58
2022/11/21 00:06:16;;;;;;;14.18;2.80;;;;;;;;;;4974688;28;20065;-57
2022/11/21 00:08:43;;;;;;;10.75;2.45;;;;;;;;;;4974651;28;20046;-58
2022/11/21 00:11:10;;;;;;;13.23;3.13;;;;;;;;;;4973717;28;20023;-58
2022/11/21 00:13:37;;;;;;;29.30;3.70;;;;;;;;;;4974474;28;20045;-57
2022/11/21 00:16:05;;;;;;;18.17;6.32;;;;;;;;;;4974852;28;20027;-58
2022/11/21 00:18:33;;;;;;;11.77;6.38;;;;;;;;;;4974043;28;20027;-57
2022/11/21 00:21:04;;;;;;;17.00;7.95;;;;;;;;;;4974566;28;20035;-56
2022/11/21 00:23:31;;;;;;;20.10;7.80;;;;;;;;;;4974368;28;20389;-55
2022/11/21 00:25:58;;;;;;;17.10;6.30;;;;;;;;;;4974314;28;20396;-58
2022/11/21 00:28:26;;;;;;;16.38;6.00;;;;;;;;;;4978995;28;20030;-54
2022/11/21 00:30:53;;;;;;;15.70;4.78;;;;;;;;;;4982382;28;20047;-57
2022/11/21 00:33:20;;;;;;;15.75;4.90;;;;;;;;;;4978775;28;20071;-58
2022/11/21 00:35:47;;;;;;;10.95;4.78;;;;;;;;;;4973996;28;20069;-55
2022/11/21 00:38:14;;;;;;;14.88;4.93;;;;;;;;;;4974112;28;20026;-58
2022/11/21 00:40:42;;;;;;;14.57;3.55;;;;;;;;;;4972429;28;20034;-57
2022/11/21 00:43:09;;;;;;;13.35;5.50;;;;;;;;;;4972465;28;20027;-57
2022/11/21 00:45:37;;;;;;;19.80;6.65;;;;;;;;;;4974728;28;20377;-57
2022/11/21 00:48:04;;;;;;;20.20;6.65;;;;;;;;;;4974440;28;20033;-52
2022/11/21 00:50:31;;;;;;;13.48;5.28;;;;;;;;;;4974762;28;20023;-57
2022/11/21 00:52:58;;;;;;;15.70;6.10;;;;;;;;;;4974599;28;20035;-57
2022/11/21 00:55:25;;;;;;;20.83;7.45;;;;;;;;;;4973793;28;20400;-57
2022/11/21 00:57:52;;;;;;;25.73;9.35;;;;;;;;;;4974850;28;20092;-57
2022/11/21 01:00:19;;;;;;;23.17;7.82;;;;;;;;;;4974802;28;20034;-56
2022/11/21 01:02:46;;;;;;;18.67;8.30;;;;;;;;;;4974798;28;20029;-58
2022/11/21 01:05:13;;;;;;;17.27;9.25;;;;;;;;;;4975171;28;20066;-57
2022/11/21 01:07:40;;;;;;;23.33;9.05;;;;;;;;;;4974470;28;20030;-55
2022/11/21 01:10:07;;;;;;;30.45;7.97;;;;;;;;;;4974641;28;20054;-56
2022/11/21 01:12:34;;;;;;;20.55;9.98;;;;;;;;;;4974220;28;20062;-58
2022/11/21 01:15:01;;;;;;;17.25;9.13;;;;;;;;;;4974506;28;20041;-58
2022/11/21 01:17:28;;;;;;;21.48;10.20;;;;;;;;;;4974558;28;20027;-56
2022/11/21 01:19:55;;;;;;;16.50;6.82;;;;;;;;;;4974875;28;20046;-58
2022/11/21 01:22:22;;;;;;;19.48;5.65;;;;;;;;;;4974262;28;20105;-55
2022/11/21 01:24:49;;;;;;;17.88;6.80;;;;;;;;;;4974565;28;20042;-57
2022/11/21 01:27:16;;;;;;;17.42;6.22;;;;;;;;;;4974729;28;20027;-57
2022/11/21 01:29:43;;;;;;;14.35;5.63;;;;;;;;;;4973373;28;20169;-58
2022/11/21 01:32:10;;;;;;;15.30;5.00;;;;;;;;;;4974086;28;20057;-57
2022/11/21 01:34:37;;;;;;;12.18;4.57;;;;;;;;;;4974006;28;20489;-58
2022/11/21 01:37:04;;;;;;;11.98;3.85;;;;;;;;;;4983100;28;20604;-56
2022/11/21 01:39:31;;;;;;;14.90;4.28;;;;;;;;;;4993527;28;20048;-58
2022/11/21 01:41:58;;;;;;;14.98;4.30;;;;;;;;;;4990326;28;20507;-57
2022/11/21 01:44:26;;;;;;;12.57;4.40;;;;;;;;;;4993594;28;20026;-57
2022/11/21 01:46:53;;;;;;;12.32;4.00;;;;;;;;;;4982603;28;20057;-57
2022/11/21 01:49:20;;;;;;;10.65;3.78;;;;;;;;;;4984637;28;20030;-57
2022/11/21 01:51:54;;;;;;;10.23;3.72;;;;;;;;;;4973739;28;20033;-56
2022/11/21 01:54:27;;;;;;;14.38;3.88;;;;;;;;;;4973880;28;20031;-57
2022/11/21 01:56:59;;;;;;;14.50;3.80;;;;;;;;;;4973936;28;20035;-55
2022/11/21 01:59:52;;;;;;;10.82;3.50;;;;;;;;;;4976384;28;20062;-55
2022/11/21 02:02:21;;;;;;;7.55;3.25;;;;;;;;;;4973382;28;20043;-55
2022/11/21 02:04:48;;;;;;;11.50;3.05;;;;;;;;;;4973716;28;20429;-58
2022/11/21 02:07:18;;;;;;;7.45;2.45;;;;;;;;;;4973774;28;20851;-57
2022/11/21 02:09:47;;;;;;;10.40;2.72;;;;;;;;;;4973528;28;20110;-55
2022/11/21 02:12:33;;;;;;;10.55;3.00;;;;;;;;;;4972858;28;20051;-56
2022/11/21 02:15:01;;;;;;;9.00;2.67;;;;;;;;;;4973432;28;20031;-54
2022/11/21 02:17:32;;;;;;;9.25;2.80;;;;;;;;;;4976489;28;20034;-58
2022/11/21 02:20:03;;;;;;;8.73;2.17;;;;;;;;;;4992342;28;20030;-56
2022/11/21 02:22:40;;;;;;;6.78;2.78;;;;;;;;;;4988306;28;20030;-57
2022/11/21 02:25:08;;;;;;;9.93;2.47;;;;;;;;;;4973158;28;20085;-58
2022/11/21 02:27:35;;;;;;;8.77;2.05;;;;;;;;;;4973690;28;20055;-58
2022/11/21 02:30:04;;;;;;;11.88;2.40;;;;;;;;;;4973443;28;20098;-55
2022/11/21 02:32:38;;;;;;;8.63;2.03;;;;;;;;;;4972878;28;20030;-56
2022/11/21 02:35:06;;;;;;;8.45;1.92;;;;;;;;;;4973401;28;20072;-57
2022/11/21 02:37:33;;;;;;;10.10;2.05;;;;;;;;;;4973178;28;20054;-57
2022/11/21 02:40:02;;;;;;;9.02;1.90;;;;;;;;;;4973301;28;20023;-52
2022/11/21 02:42:29;;;;;;;5.68;1.75;;;;;;;;;;4973522;28;20082;-56
2022/11/21 02:45:01;;;;;;;7.03;1.77;;;;;;;;;;4973026;28;20033;-57
2022/11/21 02:47:28;;;;;;;7.93;1.73;;;;;;;;;;4973367;28;20030;-57
2022/11/21 02:50:15;;;;;;;7.80;1.60;;;;;;;;;;4988525;28;20416;-56
2022/11/21 02:52:42;;;;;;;7.22;1.90;;;;;;;;;;4972603;28;20436;-57
2022/11/21 02:55:12;;;;;;;8.00;1.73;;;;;;;;;;4973214;28;20388;-56
2022/11/21 02:57:39;;;;;;;6.30;1.73;;;;;;;;;;4973248;28;20511;-56
2022/11/21 03:00:06;;;;;;;8.82;1.60;;;;;;;;;;4972989;28;20023;-57
2022/11/21 03:02:33;;;;;;;7.32;1.42;;;;;;;;;;4973249;28;20078;-55
2022/11/21 03:05:00;;;;;;;6.55;1.48;;;;;;;;;;4973345;28;20081;-53
2022/11/21 03:07:28;;;;;;;10.82;1.50;;;;;;;;;;4972648;28;20698;-56
2022/11/21 03:09:54;;;;;;;7.55;1.30;;;;;;;;;;4977884;28;20043;-54
2022/11/21 03:12:21;;;;;;;8.45;1.70;;;;;;;;;;4972637;28;20460;-58
2022/11/21 03:14:49;;;;;;;5.32;1.42;;;;;;;;;;4974871;28;20388;-50
2022/11/21 03:17:16;;;;;;;10.02;2.28;;;;;;;;;;4973487;28;20027;-54
2022/11/21 03:19:49;;;;;;;7.07;1.45;;;;;;;;;;4973391;28;20109;-54
2022/11/21 03:22:17;;;;;;;8.20;1.83;;;;;;;;;;4986602;28;20876;-59
2022/11/21 03:24:44;;;;;;;3.97;1.48;;;;;;;;;;4975220;28;20031;-55
2022/11/21 03:27:15;;;;;;;3.97;1.33;;;;;;;;;;4975695;28;20489;-58
2022/11/21 03:29:42;;;;;;;4.50;1.40;;;;;;;;;;4990925;28;20106;-56
2022/11/21 03:32:09;;;;;;;5.45;1.40;;;;;;;;;;4976215;28;20395;-58
2022/11/21 03:34:36;;;;;;;5.20;1.48;;;;;;;;;;4975831;28;20062;-55
2022/11/21 03:37:03;;;;;;;4.53;1.30;;;;;;;;;;4975571;28;20496;-57
2022/11/21 03:39:30;;;;;;;6.07;1.30;;;;;;;;;;4975731;28;20038;-57
2022/11/21 03:41:57;;;;;;;4.85;1.42;;;;;;;;;;4975195;28;20401;-59
2022/11/21 03:44:25;;;;;;;5.47;1.13;;;;;;;;;;4974931;28;20030;-54
2022/11/21 03:46:52;;;;;;;3.58;1.40;;;;;;;;;;4974638;28;20027;-57
2022/11/21 03:49:19;;;;;;;2.75;1.00;;;;;;;;;;4973994;28;20029;-57
2022/11/21 03:51:46;;;;;;;6.03;1.40;;;;;;;;;;4974967;28;20079;-58
2022/11/21 03:54:13;;;;;;;5.10;1.33;;;;;;;;;;4972544;28;20089;-54
2022/11/21 03:56:40;;;;;;;5.30;1.20;;;;;;;;;;4975362;28;20101;-58
2022/11/21 03:59:07;;;;;;;4.95;1.05;;;;;;;;;;4975296;28;20034;-57
2022/11/21 04:01:34;;;;;;;8.63;1.40;;;;;;;;;;4972646;28;20058;-55
2022/11/21 04:04:01;;;;;;;5.10;1.65;;;;;;;;;;4975324;28;20444;-56
2022/11/21 04:06:30;;;;;;;2.88;1.20;;;;;;;;;;4975166;28;20081;-57
2022/11/21 04:08:57;;;;;;;4.72;1.17;;;;;;;;;;4975016;28;20038;-57
2022/11/21 04:11:24;;;;;;;5.93;1.33;;;;;;;;;;4974928;28;20113;-57
2022/11/21 04:13:51;;;;;;;4.88;1.10;;;;;;;;;;4974877;28;20114;-58
2022/11/21 04:16:19;;;;;;;5.65;1.50;;;;;;;;;;4975009;28;20035;-56
2022/11/21 04:18:46;;;;;;;3.00;1.40;;;;;;;;;;4975098;28;20035;-57
2022/11/21 04:21:13;;;;;;;3.50;1.40;;;;;;;;;;4972293;28;20429;-56
2022/11/21 04:23:41;;;;;;;4.22;1.10;;;;;;;;;;4988302;28;20151;-57
2022/11/21 04:26:08;;;;;;;3.40;1.00;;;;;;;;;;4974725;28;20450;-57
2022/11/21 04:28:35;;;;;;;3.75;1.20;;;;;;;;;;4972575;28;20031;-56
2022/11/21 04:31:06;;;;;;;2.17;1.10;;;;;;;;;;4974826;28;20561;-55
2022/11/21 04:33:34;;;;;;;3.33;1.20;;;;;;;;;;4974702;28;20038;-55
2022/11/21 04:36:01;;;;;;;4.43;1.25;;;;;;;;;;4988968;28;20129;-58
2022/11/21 04:38:28;;;;;;;4.80;1.13;;;;;;;;;;4974670;28;20030;-56
2022/11/21 04:40:55;;;;;;;2.78;1.05;;;;;;;;;;4972321;28;20033;-55
2022/11/21 04:43:22;;;;;;;2.35;1.00;;;;;;;;;;4974351;28;20468;-57
2022/11/21 04:45:50;;;;;;;3.97;1.30;;;;;;;;;;4974882;28;20025;-52
2022/11/21 04:48:18;;;;;;;15.45;1.15;;;;;;;;;;4975374;28;20503;-53
2022/11/21 04:50:46;;;;;;;2.78;0.95;;;;;;;;;;4975635;28;20030;-55
2022/11/21 04:53:14;;;;;;;10.13;1.40;;;;;;;;;;4975512;28;20034;-55
2022/11/21 04:55:41;;;;;;;5.22;1.17;;;;;;;;;;4975724;28;20502;-56
2022/11/21 04:58:09;;;;;;;2.72;1.00;;;;;;;;;;4975783;28;20041;-54
2022/11/21 05:00:36;;;;;;;4.63;1.23;;;;;;;;;;4975476;28;20031;-56
2022/11/21 05:03:04;;;;;;;5.00;1.10;;;;;;;;;;4975705;28;20447;-54
2022/11/21 05:05:31;;;;;;;3.28;1.33;;;;;;;;;;4975193;28;20042;-56
2022/11/21 05:07:58;;;;;;;4.03;1.08;;;;;;;;;;4975301;28;20057;-56
2022/11/21 05:10:25;;;;;;;4.55;1.20;;;;;;;;;;4975507;28;20023;-56
2022/11/21 05:15:44;;;;;;;3.03;1.17;;;;;;;;;;4975593;28;20034;-57
2022/11/21 05:18:11;;;;;;;3.08;1.02;;;;;;;;;;4975410;28;20037;-58
2022/11/21 05:20:39;;;;;;;3.70;1.23;;;;;;;;;;4975114;28;20027;-56
2022/11/21 05:23:06;;;;;;;3.92;1.35;;;;;;;;;;4975289;28;20027;-56
2022/11/21 05:25:33;;;;;;;3.58;1.08;;;;;;;;;;4975334;28;20161;-55
2022/11/21 05:28:00;;;;;;;4.40;1.17;;;;;;;;;;4990435;28;20038;-54
2022/11/21 05:30:27;;;;;;;4.78;1.30;;;;;;;;;;4975213;28;20081;-55
2022/11/21 05:32:54;;;;;;;3.92;1.00;;;;;;;;;;4974861;28;20035;-55
2022/11/21 05:35:20;;;;;;;4.30;1.15;;;;;;;;;;4975019;28;20861;-54
2022/11/21 05:37:47;;;;;;;2.55;1.15;;;;;;;;;;4975177;28;20484;-56
2022/11/21 05:40:15;;;;;;;2.45;1.02;;;;;;;;;;4975005;28;20039;-53
2022/11/21 05:45:27;;;;;;;3.35;1.10;;;;;;;;;;4975220;28;20041;-55
2022/11/21 05:47:54;;;;;;;2.35;0.80;;;;;;;;;;4974078;28;20026;-56
2022/11/21 05:50:21;;;;;;;2.90;1.10;;;;;;;;;;4974808;28;20027;-55
2022/11/21 05:52:48;;;;;;;3.28;1.00;;;;;;;;;;4972269;28;20030;-55
2022/11/21 05:55:15;;;;;;;4.05;1.10;;;;;;;;;;4974720;28;20035;-56
2022/11/21 05:57:42;;;;;;;3.00;0.90;;;;;;;;;;4974770;28;20508;-54
2022/11/21 06:00:09;;;;;;;2.80;1.15;;;;;;;;;;4974743;28;20031;-57
2022/11/21 06:05:21;;;;;;;3.38;0.80;;;;;;;;;;4974578;28;20034;-56
2022/11/21 06:07:48;;;;;;;1.30;0.75;;;;;;;;;;4974585;28;20039;-56
2022/11/21 06:10:15;;;;;;;2.70;0.93;;;;;;;;;;4974471;28;20065;-55
2022/11/21 06:12:42;;;;;;;2.55;0.73;;;;;;;;;;4974348;28;20405;-56
2022/11/21 06:15:09;;;;;;;3.20;0.95;;;;;;;;;;4974303;28;20038;-56
2022/11/21 06:17:36;;;;;;;2.70;0.82;;;;;;;;;;4974458;28;20084;-55
2022/11/21 06:20:03;;;;;;;3.22;0.95;;;;;;;;;;4974693;28;20378;-56
2022/11/21 06:22:30;;;;;;;4.60;1.17;;;;;;;;;;4974208;28;20490;-55
2022/11/21 06:24:57;;;;;;;3.22;1.10;;;;;;;;;;4974353;28;20034;-57
2022/11/21 06:27:24;;;;;;;3.00;1.00;;;;;;;;;;4974298;28;20081;-56
2022/11/21 06:29:51;;;;;;;2.05;0.75;;;;;;;;;;4974235;28;20030;-56
2022/11/21 06:32:18;;;;;;;2.97;1.08;;;;;;;;;;4974128;28;20057;-55
2022/11/21 06:34:45;;;;;;;2.40;0.90;;;;;;;;;;4974121;28;20039;-56
2022/11/21 06:37:12;;;;;;;3.58;1.00;;;;;;;;;;4974110;28;20039;-57
2022/11/21 06:39:39;;;;;;;3.38;1.00;;;;;;;;;;4974077;28;20121;-57
2022/11/21 06:42:06;;;;;;;3.35;0.90;;;;;;;;;;4974058;28;20023;-55
2022/11/21 06:44:33;;;;;;;2.75;0.80;;;;;;;;;;4988926;28;20078;-56
2022/11/21 06:47:00;;;;;;;2.45;0.90;;;;;;;;;;4973472;28;20027;-57
2022/11/21 06:49:27;;;;;;;1.85;0.75;;;;;;;;;;4973306;28;20054;-57
2022/11/21 06:51:54;;;;;;;3.30;0.85;;;;;;;;;;4973139;28;20061;-55
2022/11/21 06:54:20;;;;;;;3.17;1.13;;;;;;;;;;4973517;28;20034;-56
2022/11/21 06:56:47;;;;;;;2.70;0.95;;;;;;;;;;4973804;28;20034;-57
2022/11/21 06:59:14;;;;;;;4.03;1.20;;;;;;;;;;4977118;28;20039;-54
2022/11/21 07:01:41;;;;;;;4.13;1.10;;;;;;;;;;4980301;28;20027;-57
2022/11/21 07:04:08;;;;;;;3.33;0.88;;;;;;;;;;4980273;28;20113;-55
2022/11/21 07:06:35;;;;;;;3.42;1.17;;;;;;;;;;4980376;28;20027;-57
2022/11/21 07:09:02;;;;;;;3.22;1.17;;;;;;;;;;4980323;28;20055;-56
2022/11/21 07:11:29;;;;;;;2.30;0.93;;;;;;;;;;4979957;28;20081;-54
2022/11/21 07:13:56;;;;;;;2.90;1.00;;;;;;;;;;4995254;28;20389;-54
2022/11/21 07:16:24;;;;;;;5.43;1.23;;;;;;;;;;4980106;28;20084;-56
2022/11/21 07:18:51;;;;;;;2.92;0.95;;;;;;;;;;4980192;28;20039;-57
2022/11/21 07:21:18;;;;;;;2.90;1.00;;;;;;;;;;4980154;28;20034;-56
2022/11/21 07:23:45;;;;;;;4.40;1.05;;;;;;;;;;4980186;28;20031;-57
2022/11/21 07:26:12;;;;;;;3.03;0.90;;;;;;;;;;4980143;28;20030;-57
2022/11/21 07:28:39;;;;;;;1.90;0.80;;;;;;;;;;4980156;28;20023;-55
2022/11/21 07:31:06;;;;;;;2.00;0.73;;;;;;;;;;4979975;28;20034;-54
2022/11/21 07:33:33;;;;;;;2.78;0.90;;;;;;;;;;4980053;28;20026;-56
2022/11/21 07:36:00;;;;;;;5.68;1.20;;;;;;;;;;4979993;28;20027;-56
2022/11/21 07:38:27;;;;;;;2.92;1.00;;;;;;;;;;4979892;28;20027;-56
2022/11/21 07:40:56;;;;;;;2.25;0.98;;;;;;;;;;4979651;28;20022;-53
2022/11/21 07:43:23;;;;;;;3.13;1.00;;;;;;;;;;4979678;28;20057;-56
2022/11/21 07:45:50;;;;;;;4.30;0.93;;;;;;;;;;4979535;28;20034;-57
2022/11/21 07:48:17;;;;;;;3.05;1.20;;;;;;;;;;4979898;28;20026;-56
2022/11/21 07:50:44;;;;;;;3.47;1.23;;;;;;;;;;4979762;28;20027;-52
2022/11/21 07:53:11;;;;;;;3.53;0.85;;;;;;;;;;4979762;28;20080;-55
2022/11/21 07:55:38;;;;;;;2.45;0.82;;;;;;;;;;4979811;28;20034;-55
2022/11/21 07:58:06;;;;;;;2.75;0.88;;;;;;;;;;4979777;28;20531;-54
2022/11/21 08:00:34;;;;;;;3.28;0.95;;;;;;;;;;4994764;28;20027;-56
2022/11/21 08:03:01;;;;;;;2.15;0.70;;;;;;;;;;4979906;28;20030;-56
2022/11/21 08:05:28;;;;;;;7.25;1.20;;;;;;;;;;4979718;28;20110;-56
2022/11/21 08:07:55;;;;;;;2.53;0.82;;;;;;;;;;4979795;28;20432;-54
2022/11/21 08:10:22;;;;;;;2.13;0.90;;;;;;;;;;4977544;28;20049;-57
2022/11/21 08:12:49;;;;;;;2.78;0.95;;;;;;;;;;4976608;28;20051;-55
2022/11/21 08:15:16;;;;;;;2.47;0.90;;;;;;;;;;4976653;28;20122;-57
2022/11/21 08:17:43;;;;;;;3.85;1.20;;;;;;;;;;4976615;28;20027;-56
2022/11/21 08:20:11;;;;;;;2.20;0.80;;;;;;;;;;4976522;28;20019;-53
2022/11/21 08:22:41;;;;;;;4.63;1.02;;;;;;;;;;4976521;28;20034;-52
2022/11/21 08:25:08;;;;;;;2.88;1.20;;;;;;;;;;4976520;28;20058;-57
2022/11/21 08:27:37;;;;;;;3.70;1.20;;;;;;;;;;4976464;28;20385;-56
2022/11/21 08:30:05;;;;;;;2.47;1.13;;;;;;;;;;4976093;28;20523;-56
2022/11/21 08:32:33;;;;;;;3.28;1.17;;;;;;;;;;4976295;28;20030;-56
2022/11/21 08:34:59;;;;;;;2.65;0.95;;;;;;;;;;4975936;28;20043;-55
2022/11/21 08:37:31;;;;;;;3.60;1.00;;;;;;;;;;4976331;28;20086;-56
2022/11/21 08:39:59;;;;;;;2.60;0.83;;;;;;;;;;4976148;28;20035;-59
2022/11/21 08:42:26;;;;;;;2.42;0.90;;;;;;;;;;4976161;28;20109;-55
2022/11/21 08:44:53;;;;;;;2.47;0.80;;;;;;;;;;4976175;28;20035;-57
2022/11/21 08:47:20;;;;;;;3.30;0.88;;;;;;;;;;4976034;28;20026;-56
2022/11/21 08:49:48;;;;;;;2.17;0.90;;;;;;;;;;4976136;28;20031;-52
2022/11/21 08:52:16;;;;;;;3.30;1.10;;;;;;;;;;4976185;28;20405;-53
2022/11/21 08:54:43;;;;;;;3.83;1.17;;;;;;;;;;4976003;28;20034;-57
2022/11/21 08:57:10;;;;;;;3.28;1.20;;;;;;;;;;4975985;28;20433;-55
2022/11/21 08:59:37;;;;;;;4.15;1.08;;;;;;;;;;4975891;28;20392;-54
2022/11/21 09:02:04;;;;;;;2.95;1.05;;;;;;;;;;4975779;28;20027;-57
2022/11/21 09:04:31;;;;;;;2.67;0.90;;;;;;;;;;4975757;28;20026;-56
2022/11/21 09:06:59;;;;;;;3.30;1.02;;;;;;;;;;4975776;28;20034;-57
2022/11/21 09:09:26;;;;;;;3.10;0.98;;;;;;;;;;4975674;28;20039;-55
2022/11/21 09:11:53;;;;;;;2.80;0.98;;;;;;;;;;4975311;28;20061;-56
2022/11/21 09:19:50;;;;;;;3.55;0.82;;;;;;;;;;4975438;28;20041;-56
2022/11/21 09:22:17;;;;;;;3.45;1.05;;;;;;;;;;4975253;28;20107;-54
2022/11/21 09:24:44;;;;;;;2.60;0.95;;;;;;;;;;4975387;28;20033;-56
2022/11/21 09:27:11;;;;;;;3.75;1.30;;;;;;;;;;4975254;28;20030;-56
2022/11/21 09:29:38;;;;;;;4.10;1.10;;;;;;;;;;4975370;28;20126;-56
2022/11/21 09:32:05;;;;;;;4.00;1.10;;;;;;;;;;4975162;28;20492;-55
2022/11/21 09:34:32;;;;;;;2.95;1.02;;;;;;;;;;4975142;28;20493;-53
2022/11/21 09:36:59;;;;;;;3.47;1.05;;;;;;;;;;4975159;28;20026;-56
2022/11/21 09:39:26;;;;;;;4.13;1.15;;;;;;;;;;4975224;28;20019;-56
2022/11/21 09:42:03;;;;;;;4.82;1.23;;;;;;;;;;4989895;28;20401;-55
2022/11/21 09:44:42;;;;;;;3.13;1.10;;;;;;;;;;4974999;28;20023;-56
2022/11/21 09:47:32;;;;;;;4.75;1.10;;;;;;;;;;4975001;28;20054;-52
2022/11/21 09:50:03;;;;;;;3.85;1.15;;;;;;;;;;4974685;28;20114;-54
2022/11/21 09:52:50;;;;;;;3.05;0.88;;;;;;;;;;4974918;28;20442;-57
2022/11/21 09:55:31;;;;;;;4.97;1.10;;;;;;;;;;4974661;28;20436;-55
2022/11/21 09:58:00;;;;;;;4.60;1.20;;;;;;;;;;4974820;28;20060;-57
2022/11/21 10:00:27;;;;;;;2.97;1.17;;;;;;;;;;4974648;28;20117;-55
2022/11/21 10:02:54;;;;;;;3.38;1.00;;;;;;;;;;4974735;28;20022;-54
2022/11/21 10:05:37;;;;;;;4.82;1.38;;;;;;;;;;4974715;28;20027;-56
2022/11/21 10:08:15;;;;;;;2.58;1.10;;;;;;;;;;4974712;28;20031;-56
2022/11/21 10:10:45;;;;;;;4.68;1.35;;;;;;;;;;4974508;28;20031;-54
2022/11/21 10:13:11;;;;;;;3.47;1.42;;;;;;;;;;4974339;28;20050;-55
2022/11/21 10:15:44;;;;;;;4.80;1.33;;;;;;;;;;4974730;28;20041;-56
2022/11/21 10:18:14;;;;;;;3.65;1.30;;;;;;;;;;4974458;28;20031;-55
2022/11/21 10:20:43;;;;;;;;;;;;;;;;;;4974730;28;20101;-56
2022/11/21 10:23:10;;;;;;;4.03;1.25;;;;;;;;;;4974446;28;19917;-56
2022/11/21 10:25:37;;;;;;;6.60;1.48;;;;;;;;;;4974398;28;20130;-55
2022/11/21 10:28:08;;;;;;;7.78;1.88;;;;;;;;;;4974394;28;20106;-52
2022/11/21 10:30:35;;;;;;;4.40;1.58;;;;;;;;;;4974225;28;20026;-56
2022/11/21 10:33:04;;;;;;;5.72;1.30;;;;;;;;;;4973899;28;20023;-56
2022/11/21 10:35:41;;;;;;;3.95;1.40;;;;;;;;;;4974049;28;20085;-56
2022/11/21 10:38:17;;;;;;;5.18;1.50;;;;;;;;;;4974234;28;20023;-53
2022/11/21 10:40:47;;;;;;;5.97;1.60;;;;;;;;;;4974037;28;20030;-57
2022/11/21 10:46:08;;;;;;;5.20;1.50;;;;;;;;;;4974135;28;20471;-54
2022/11/21 10:48:35;;;;;;;6.18;1.60;;;;;;;;;;4974045;28;20461;-55
2022/11/21 10:51:17;;;;;;;5.38;1.48;;;;;;;;;;4973798;28;20029;-56
2022/11/21 10:56:33;;;;;;;7.22;1.63;;;;;;;;;;4973965;28;20089;-57
2022/11/21 10:59:11;;;;;;;3.60;1.33;;;;;;;;;;4974233;28;20440;-56
2022/11/21 11:01:38;;;;;;;6.60;1.42;;;;;;;;;;4973751;28;20030;-57
2022/11/21 11:04:11;;;;;;;8.30;1.60;;;;;;;;;;4973918;28;20035;-56
2022/11/21 11:06:39;;;;;;;8.00;1.88;;;;;;;;;;4973905;28;20118;-55
2022/11/21 11:09:06;;;;;;;4.95;1.48;;;;;;;;;;4973944;28;20434;-54
2022/11/21 11:11:33;;;;;;;4.72;1.55;;;;;;;;;;4988493;28;20070;-56
2022/11/21 11:14:13;;;;;;;6.47;1.55;;;;;;;;;;4973774;28;20031;-56
2022/11/21 11:16:44;;;;;;;5.65;1.63;;;;;;;;;;4973689;28;20054;-57
2022/11/21 11:19:13;;;;;;;5.38;1.70;;;;;;;;;;4973717;28;20085;-54
2022/11/21 11:21:40;;;;;;;4.03;1.52;;;;;;;;;;4971986;28;20031;-55
2022/11/21 11:24:10;;;;;;;4.65;1.75;;;;;;;;;;4972875;28;20396;-57
2022/11/21 11:26:46;;;;;;;5.28;1.70;;;;;;;;;;4973054;28;20034;-57
2022/11/21 11:29:15;;;;;;;5.78;1.92;;;;;;;;;;4973427;28;20019;-56
2022/11/21 11:31:43;;;;;;;7.43;1.88;;;;;;;;;;4989208;28;20515;-56
2022/11/21 11:34:14;;;;;;;5.57;1.40;;;;;;;;;;4992982;28;20037;-57
2022/11/21 11:37:02;;;;;;;5.50;1.60;;;;;;;;;;4992959;28;20431;-56
2022/11/21 11:39:37;;;;;;;4.97;1.70;;;;;;;;;;4992967;28;20034;-57
2022/11/21 11:47:52;;;;;;;5.28;1.80;;;;;;;;;;4996667;28;20048;-57
2022/11/21 11:50:21;;;;;;;7.45;2.10;;;;;;;;;;4996767;28;20447;-56
2022/11/21 11:52:52;;;;;;;6.63;2.20;;;;;;;;;;4996587;28;20081;-57
2022/11/21 11:55:37;;;;;;;6.30;1.98;;;;;;;;;;4996492;28;20026;-56
2022/11/21 11:58:07;;;;;;;5.25;1.75;;;;;;;;;;4996459;28;20076;-57
2022/11/21 12:00:51;;;;;;;6.00;1.75;;;;;;;;;;4996317;28;20022;-55
2022/11/21 12:03:41;;;;;;;9.90;2.15;;;;;;;;;;5011557;28;20065;-57
2022/11/21 12:06:11;;;;;;;7.80;2.38;;;;;;;;;;4995845;28;20069;-54
2022/11/21 12:08:45;;;;;;;8.18;2.20;;;;;;;;;;4996334;28;20109;-57
2022/11/21 12:14:01;;;;;;;5.68;2.00;;;;;;;;;;4996238;28;20040;-57
2022/11/21 12:16:29;;;;;;;8.32;1.80;;;;;;;;;;4996035;28;20105;-56
2022/11/21 12:19:10;;;;;;;7.15;2.00;;;;;;;;;;4996168;28;20495;-57
2022/11/21 12:21:37;;;;;;;7.15;2.13;;;;;;;;;;4996058;28;20028;-57
2022/11/21 12:24:05;;;;;;;7.55;2.38;;;;;;;;;;4996006;28;20037;-56
2022/11/21 12:26:59;;;;;;;9.10;2.00;;;;;;;;;;5011038;28;20443;-56
2022/11/21 12:29:35;;;;;;;6.32;1.95;;;;;;;;;;4995919;28;20022;-55
2022/11/21 12:32:08;;;;;;;7.25;1.83;;;;;;;;;;4995889;28;20029;-57
2022/11/21 12:34:58;;;;;;;8.77;2.13;;;;;;;;;;4995782;28;20384;-54
2022/11/21 12:37:31;;;;;;;8.68;2.10;;;;;;;;;;4994546;28;20048;-57
2022/11/21 12:40:04;;;;;;;8.38;2.20;;;;;;;;;;4995660;28;20543;-56
2022/11/21 12:42:49;;;;;;;6.60;2.05;;;;;;;;;;4995566;28;20034;-57
2022/11/21 12:45:36;;;;;;;7.88;2.42;;;;;;;;;;4995556;28;20084;-57
2022/11/21 12:56:54;;;;;;;5.55;2.38;;;;;;;;;;4975294;28;20105;-56
2022/11/21 12:59:22;;;;;;;5.60;1.70;;;;;;;;;;4975887;28;20081;-52
2022/11/21 13:02:02;;;;;;;7.22;1.88;;;;;;;;;;4975702;28;20473;-57
2022/11/21 13:04:30;;;;;;;5.72;2.13;;;;;;;;;;4975707;28;20037;-57
2022/11/21 13:06:57;;;;;;;6.28;1.90;;;;;;;;;;4990633;28;20030;-57
2022/11/21 13:09:25;;;;;;;5.07;1.95;;;;;;;;;;4975750;28;20037;-54
2022/11/21 13:12:28;;;;;;;4.53;1.90;;;;;;;;;;4975361;28;20101;-54
2022/11/21 13:15:24;;;;;;;10.35;2.22;;;;;;;;;;4973460;28;20142;-57
2022/11/21 13:18:01;;;;;;;8.50;2.28;;;;;;;;;;4966912;28;20118;-56
2022/11/21 13:20:39;;;;;;;4.43;1.83;;;;;;;;;;4975298;28;20450;-54
2022/11/21 13:23:25;;;;;;;9.13;2.03;;;;;;;;;;4975472;28;20090;-57
2022/11/21 13:25:52;;;;;;;5.97;2.05;;;;;;;;;;4975481;28;20493;-57
2022/11/21 13:28:19;;;;;;;5.93;2.05;;;;;;;;;;4975324;28;20097;-57
2022/11/21 13:30:56;;;;;;;16.08;2.60;;;;;;;;;;4965515;28;20035;-57
2022/11/21 13:33:35;;;;;;;16.80;2.85;;;;;;;;;;4970473;28;20062;-60
2022/11/21 13:36:02;;;;;;;22.65;2.72;;;;;;;;;;4971911;28;20038;-57
2022/11/21 13:38:29;;;;;;;14.85;2.95;;;;;;;;;;4971537;28;20106;-62
2022/11/21 13:44:20;;;;;;;18.75;2.60;;;;;;;;;;4959809;28;20493;-58
2022/11/21 13:46:58;;;;;;;21.88;3.60;;;;;;;;;;4951609;29;20042;-58
2022/11/21 13:49:33;;;;;;;23.65;3.47;;;;;;;;;;4966214;28;20066;-61
2022/11/21 13:52:03;;;;;;;20.10;3.58;;;;;;;;;;4973060;28;20043;-52
2022/11/21 13:54:40;;;;;;;20.80;3.10;;;;;;;;;;4972739;28;20022;-53
2022/11/21 13:57:16;;;;;;;21.77;3.08;;;;;;;;;;4973293;28;20489;-56
2022/11/21 13:59:55;;;;;;;18.17;3.40;;;;;;;;;;4972766;28;20081;-51
2022/11/21 14:02:22;;;;;;;16.13;2.88;;;;;;;;;;4972784;28;20029;-56
2022/11/21 14:05:08;;;;;;;16.30;3.03;;;;;;;;;;4972484;28;20465;-56
2022/11/21 14:07:36;;;;;;;20.33;2.85;;;;;;;;;;4971430;28;20543;-55
2022/11/21 14:10:18;;;;;;;25.13;2.92;;;;;;;;;;4971347;28;20107;-57
2022/11/21 14:12:48;;;;;;;20.95;3.33;;;;;;;;;;4970542;28;20043;-56
2022/11/21 14:15:15;;;;;;;14.50;3.38;;;;;;;;;;4972122;28;20432;-55
2022/11/21 14:17:45;;;;;;;15.18;2.75;;;;;;;;;;4970358;28;20031;-59
2022/11/21 14:20:17;;;;;;;17.65;2.63;;;;;;;;;;4971586;28;20043;-58
2022/11/21 14:22:47;;;;;;;16.95;2.85;;;;;;;;;;4969215;28;20027;-58
2022/11/21 14:25:17;;;;;;;16.08;2.65;;;;;;;;;;4971437;28;20466;-55
2022/11/21 14:27:47;;;;;;;13.25;2.95;;;;;;;;;;4970957;28;20114;-53
2022/11/21 14:30:32;;;;;;;22.98;2.45;;;;;;;;;;4971369;28;20034;-56
2022/11/21 14:33:17;;;;;;;15.82;2.50;;;;;;;;;;4967508;28;20026;-53
2022/11/21 14:35:47;;;;;;;10.32;2.53;;;;;;;;;;4969656;28;20039;-56
2022/11/21 14:38:14;;;;;;;9.27;2.15;;;;;;;;;;4985458;28;20026;-51
2022/11/21 14:40:41;;;;;;;15.18;2.78;;;;;;;;;;4970596;28;20030;-57
2022/11/21 14:43:37;;;;;;;12.98;2.70;;;;;;;;;;4970282;28;20046;-56
2022/11/21 14:46:04;;;;;;;10.35;2.20;;;;;;;;;;4968855;28;20174;-56
2022/11/21 14:48:31;;;;;;;8.40;2.20;;;;;;;;;;4970730;28;20026;-57
2022/11/21 14:50:59;;;;;;;7.80;1.88;;;;;;;;;;4970913;28;20027;-58
2022/11/21 14:53:27;;;;;;;11.35;2.03;;;;;;;;;;4971164;28;20027;-59
2022/11/21 14:55:54;;;;;;;9.38;2.15;;;;;;;;;;4971139;28;20034;-57
2022/11/21 14:58:22;;;;;;;15.13;2.10;;;;;;;;;;4971222;28;20101;-56
2022/11/21 15:01:02;;;;;;;6.93;2.20;;;;;;;;;;4971550;28;20022;-56
2022/11/21 15:03:29;;;;;;;14.20;2.17;;;;;;;;;;4972281;28;20118;-59
2022/11/21 15:06:03;;;;;;;9.57;2.22;;;;;;;;;;4971444;28;20611;-58
2022/11/21 15:08:35;;;;;;;7.55;2.45;;;;;;;;;;4970191;28;20059;-57
2022/11/21 15:11:02;;;;;;;11.35;2.42;;;;;;;;;;4971827;28;20023;-58
2022/11/21 15:13:34;;;;;;;11.95;2.40;;;;;;;;;;4972101;28;20050;-59
2022/11/21 15:16:01;;;;;;;;;;;;;;;;;;4971003;28;20125;-60
2022/11/21 15:18:32;;;;;;;9.10;2.00;;;;;;;;;;4985394;28;20493;-57
2022/11/21 15:21:01;;;;;;;10.98;2.17;;;;;;;;;;4975022;28;20034;-58
2022/11/21 15:23:29;;;;;;;15.13;2.15;;;;;;;;;;4976444;28;20030;-59
2022/11/21 15:25:56;;;;;;;8.50;1.77;;;;;;;;;;4975766;28;20452;-59
2022/11/21 15:28:23;;;;;;;10.82;1.98;;;;;;;;;;4974632;28;20038;-57
2022/11/21 15:31:09;;;;;;;11.80;2.15;;;;;;;;;;4975099;28;20054;-59
2022/11/21 15:33:55;;;;;;;7.75;2.30;;;;;;;;;;4988560;28;20434;-59
2022/11/21 15:36:22;;;;;;;7.13;2.25;;;;;;;;;;4974094;28;20485;-58